Time,TemperatureF,DewpointF,PressureIn,WindDirection,WindDirectionDegrees,WindSpeedMPH,WindSpeedGustMPH,Humidity,HourlyPrecipIn,Conditions,Clouds,dailyrainin,SoftwareType,DateUTC
2013-02-15 00:01:00,28.4,22.2,30.03,South,180,0.0,0.0,77,2.59,,,0.00,WUHU216HW,2013-02-15 05:01:00,
2013-02-15 00:03:00,28.4,22.2,30.03,South,180,0.0,0.0,77,0.00,,,0.00,WUHU216HW,2013-02-15 05:03:00,
2013-02-15 00:11:00,28.3,22.0,30.03,South,180,0.0,0.2,77,2.59,,,0.01,WUHU216HW,2013-02-15 05:11:00,
2013-02-15 00:13:00,28.3,22.0,30.03,South,180,0.0,0.2,77,0.00,,,0.00,WUHU216HW,2013-02-15 05:13:00,
2013-02-15 00:21:00,28.3,22.0,30.03,South,180,0.0,0.0,77,2.59,,,0.01,WUHU216HW,2013-02-15 05:21:00,
2013-02-15 00:32:00,28.1,21.8,30.03,South,180,0.0,0.0,77,2.59,,,0.01,WUHU216HW,2013-02-15 05:32:00,
2013-02-15 00:42:00,27.9,21.6,30.03,South,180,0.0,0.2,77,2.59,,,0.01,WUHU216HW,2013-02-15 05:42:00,
2013-02-15 00:52:00,28.1,22.1,30.03,South,180,0.0,0.2,78,2.59,,,0.01,WUHU216HW,2013-02-15 05:52:00,
2013-02-15 01:02:00,28.4,22.8,30.03,South,180,0.0,0.4,79,2.59,,,0.01,WUHU216HW,2013-02-15 06:02:00,
2013-02-15 01:12:00,29.0,23.6,30.03,NNW,338,0.0,0.0,80,2.59,,,0.02,WUHU216HW,2013-02-15 06:12:00,
2013-02-15 01:22:00,29.0,23.3,30.03,NNW,338,0.4,0.4,79,2.59,,,0.02,WUHU216HW,2013-02-15 06:22:00,
2013-02-15 01:32:00,29.2,23.5,30.03,NNW,338,0.0,0.0,79,2.59,,,0.02,WUHU216HW,2013-02-15 06:32:00,
2013-02-15 01:42:00,29.2,23.5,30.03,SSE,158,0.0,0.0,79,2.59,,,0.02,WUHU216HW,2013-02-15 06:42:00,
2013-02-15 01:52:00,29.5,23.8,30.03,SSE,158,0.0,0.0,79,2.59,,,0.02,WUHU216HW,2013-02-15 06:52:00,
2013-02-15 02:02:00,29.9,24.1,30.03,South,180,0.0,0.7,79,2.59,,,0.02,WUHU216HW,2013-02-15 07:02:00,
2013-02-15 02:12:00,30.2,24.8,30.02,North,0,0.4,0.9,80,2.59,,,0.03,WUHU216HW,2013-02-15 07:12:00,
2013-02-15 02:22:00,30.4,25.0,30.02,NNW,338,0.0,0.4,80,2.59,,,0.03,WUHU216HW,2013-02-15 07:22:00,
2013-02-15 02:33:00,30.2,24.5,30.03,South,180,0.2,0.2,79,2.59,,,0.03,WUHU216HW,2013-02-15 07:33:00,
2013-02-15 02:43:00,29.9,24.1,30.02,SSE,158,0.0,0.7,79,2.59,,,0.03,WUHU216HW,2013-02-15 07:43:00,
2013-02-15 02:53:00,29.7,23.9,30.02,SSE,158,0.0,0.2,79,2.59,,,0.03,WUHU216HW,2013-02-15 07:53:00,
2013-02-15 03:03:00,29.5,23.8,30.02,SSE,158,0.0,0.4,79,0.00,,,0.00,WUHU216HW,2013-02-15 08:03:00,
2013-02-15 03:13:00,29.3,23.9,30.01,West,270,0.0,0.7,80,0.00,,,0.00,WUHU216HW,2013-02-15 08:13:00,
2013-02-15 03:23:00,29.3,23.9,30.01,South,180,0.0,0.0,80,0.00,,,0.00,WUHU216HW,2013-02-15 08:23:00,
2013-02-15 03:33:00,29.2,23.8,30.02,SE,135,0.0,1.1,80,0.00,,,0.00,WUHU216HW,2013-02-15 08:33:00,
2013-02-15 03:43:00,29.0,23.6,30.02,South,180,0.0,0.0,80,0.00,,,0.00,WUHU216HW,2013-02-15 08:43:00,
2013-02-15 03:53:00,28.8,23.4,30.02,South,180,0.0,0.0,80,0.00,,,0.00,WUHU216HW,2013-02-15 08:53:00,
2013-02-15 04:03:00,28.6,23.2,30.01,South,180,0.0,0.0,80,0.00,,,0.00,WUHU216HW,2013-02-15 09:03:00,
2013-02-15 04:13:00,28.6,23.2,30.02,South,180,0.0,0.0,80,0.00,,,0.00,WUHU216HW,2013-02-15 09:13:00,
2013-02-15 04:23:00,28.4,23.3,30.02,South,180,0.0,0.0,81,0.00,,,0.00,WUHU216HW,2013-02-15 09:23:00,
2013-02-15 04:33:00,28.4,23.3,30.02,South,180,0.0,0.2,81,0.00,,,0.00,WUHU216HW,2013-02-15 09:33:00,
2013-02-15 04:43:00,28.4,23.3,30.02,South,180,0.0,0.0,81,0.00,,,0.00,WUHU216HW,2013-02-15 09:43:00,
2013-02-15 04:53:00,28.3,23.1,30.02,South,180,0.4,0.4,81,0.00,,,0.00,WUHU216HW,2013-02-15 09:53:00,
2013-02-15 05:03:00,28.1,23.0,30.01,SSE,158,0.0,0.0,81,0.00,,,0.00,WUHU216HW,2013-02-15 10:03:00,
2013-02-15 05:13:00,28.1,23.0,30.01,SSE,158,0.0,0.0,81,0.00,,,0.00,WUHU216HW,2013-02-15 10:13:00,
2013-02-15 05:23:00,27.9,23.0,30.01,SSE,158,0.0,0.0,82,0.00,,,0.00,WUHU216HW,2013-02-15 10:23:00,
2013-02-15 05:33:00,27.7,22.9,30.01,SSW,203,0.2,0.4,82,0.00,,,0.00,WUHU216HW,2013-02-15 10:33:00,
2013-02-15 05:43:00,27.5,22.7,30.01,SSW,203,0.0,0.2,82,0.00,,,0.00,WUHU216HW,2013-02-15 10:43:00,
2013-02-15 05:53:00,27.5,22.7,30.01,SSW,203,0.0,0.0,82,0.00,,,0.00,WUHU216HW,2013-02-15 10:53:00,
2013-02-15 06:03:00,27.4,22.9,30.01,South,180,0.2,0.4,83,0.00,,,0.00,WUHU216HW,2013-02-15 11:03:00,
2013-02-15 06:13:00,27.4,22.9,30.01,South,180,0.0,0.4,83,0.00,,,0.00,WUHU216HW,2013-02-15 11:13:00,
2013-02-15 06:23:00,27.4,22.9,30.01,South,180,0.0,0.0,83,0.00,,,0.00,WUHU216HW,2013-02-15 11:23:00,
2013-02-15 06:33:00,27.2,22.7,30.01,South,180,0.0,0.0,83,0.00,,,0.00,WUHU216HW,2013-02-15 11:33:00,
2013-02-15 06:43:00,27.0,22.5,30.01,South,180,0.0,0.4,83,0.00,,,0.00,WUHU216HW,2013-02-15 11:43:00,
2013-02-15 06:53:00,27.0,22.5,30.01,South,180,0.0,0.0,83,0.00,,,0.00,WUHU216HW,2013-02-15 11:53:00,
2013-02-15 07:03:00,27.0,22.5,30.02,South,180,0.0,0.0,83,0.00,,,0.00,WUHU216HW,2013-02-15 12:03:00,
2013-02-15 07:13:00,27.0,22.5,30.02,SSW,203,0.0,0.2,83,0.00,,,0.00,WUHU216HW,2013-02-15 12:13:00,
2013-02-15 07:23:00,27.4,23.4,30.03,West,270,0.0,0.4,85,0.00,,,0.00,WUHU216HW,2013-02-15 12:23:00,
2013-02-15 07:33:00,27.4,23.1,30.03,SSW,203,0.0,0.4,84,0.00,,,0.00,WUHU216HW,2013-02-15 12:33:00,
2013-02-15 07:43:00,27.7,23.5,30.04,SSW,203,0.0,0.0,84,0.00,,,0.00,WUHU216HW,2013-02-15 12:43:00,
2013-02-15 07:53:00,28.1,24.1,30.04,SW,225,0.0,0.0,85,0.00,,,0.00,WUHU216HW,2013-02-15 12:53:00,
2013-02-15 08:03:00,28.4,24.8,30.04,SW,225,0.0,0.0,86,0.00,,,0.00,WUHU216HW,2013-02-15 13:03:00,
2013-02-15 08:13:00,29.5,25.8,30.04,WSW,248,0.0,0.2,86,0.00,,,0.00,WUHU216HW,2013-02-15 13:13:00,
2013-02-15 08:23:00,30.8,28.0,30.04,WNW,293,0.4,0.9,89,0.00,,,0.00,WUHU216HW,2013-02-15 13:23:00,
2013-02-15 08:33:00,32.0,29.0,30.04,West,270,0.0,0.4,88,0.00,,,0.00,WUHU216HW,2013-02-15 13:33:00,
2013-02-15 08:43:00,33.3,30.1,30.05,NW,315,0.0,0.7,88,0.00,,,0.00,WUHU216HW,2013-02-15 13:43:00,
2013-02-15 08:53:00,34.2,30.1,30.04,NNW,338,0.4,1.8,85,0.00,,,0.00,WUHU216HW,2013-02-15 13:53:00,
2013-02-15 09:03:00,35.3,30.9,30.04,SW,225,0.4,2.5,84,0.00,,,0.00,WUHU216HW,2013-02-15 14:03:00,
2013-02-15 09:13:00,37.1,32.7,30.04,SSW,203,0.0,1.1,84,0.00,,,0.00,WUHU216HW,2013-02-15 14:13:00,
2013-02-15 09:23:00,40.3,35.6,30.04,SW,225,2.0,2.0,83,0.00,,,0.00,WUHU216HW,2013-02-15 14:23:00,
2013-02-15 09:33:00,44.3,38.5,30.04,SW,225,0.0,2.7,80,0.00,,,0.00,WUHU216HW,2013-02-15 14:33:00,
2013-02-15 09:43:00,43.4,34.3,30.04,West,270,0.9,1.1,70,0.00,,,0.00,WUHU216HW,2013-02-15 14:43:00,
2013-02-15 09:53:00,42.8,33.8,30.04,WSW,248,2.0,2.0,70,0.00,,,0.00,WUHU216HW,2013-02-15 14:53:00,
2013-02-15 10:03:00,43.6,35.2,30.04,WSW,248,1.8,2.7,72,0.00,,,0.00,WUHU216HW,2013-02-15 15:03:00,
2013-02-15 10:13:00,47.9,39.2,30.04,SW,225,0.4,2.9,72,0.00,,,0.00,WUHU216HW,2013-02-15 15:13:00,
2013-02-15 10:23:00,50.0,39.5,30.04,WNW,293,0.7,2.7,67,0.00,,,0.00,WUHU216HW,2013-02-15 15:23:00,
2013-02-15 10:33:00,47.9,35.9,30.04,WSW,248,1.1,2.7,63,0.00,,,0.00,WUHU216HW,2013-02-15 15:33:00,
2013-02-15 10:43:00,48.8,36.7,30.04,SW,225,0.7,2.0,63,0.00,,,0.00,WUHU216HW,2013-02-15 15:43:00,
2013-02-15 10:53:00,47.7,34.1,30.04,NNW,338,2.5,3.4,59,0.00,,,0.00,WUHU216HW,2013-02-15 15:53:00,
2013-02-15 11:03:00,50.0,38.4,30.03,South,180,3.1,3.1,64,0.00,,,0.00,WUHU216HW,2013-02-15 16:03:00,
2013-02-15 11:13:00,53.3,39.3,30.03,South,180,2.7,3.1,59,0.00,,,0.00,WUHU216HW,2013-02-15 16:13:00,
2013-02-15 11:23:00,55.6,41.9,30.02,SSW,203,1.3,4.0,60,0.00,,,0.00,WUHU216HW,2013-02-15 16:23:00,
2013-02-15 11:33:00,54.9,39.4,30.02,SW,225,2.9,4.0,56,0.00,,,0.00,WUHU216HW,2013-02-15 16:33:00,
2013-02-15 11:43:00,56.7,41.1,30.01,SW,225,3.1,4.7,56,0.00,,,0.00,WUHU216HW,2013-02-15 16:43:00,
2013-02-15 11:53:00,56.9,39.4,30.01,WSW,248,1.1,3.4,52,0.00,,,0.00,WUHU216HW,2013-02-15 16:53:00,
2013-02-15 12:03:00,56.9,40.4,30.00,SW,225,1.8,2.7,54,0.00,,,0.00,WUHU216HW,2013-02-15 17:03:00,
2013-02-15 12:13:00,58.0,40.5,30.00,South,180,2.2,3.4,52,0.00,,,0.00,WUHU216HW,2013-02-15 17:13:00,
2013-02-15 12:23:00,56.7,37.8,29.99,West,270,0.4,4.7,49,0.00,,,0.00,WUHU216HW,2013-02-15 17:23:00,
2013-02-15 12:33:00,55.3,36.4,29.99,WSW,248,0.7,4.0,49,0.00,,,0.00,WUHU216HW,2013-02-15 17:33:00,
2013-02-15 12:43:00,55.1,35.6,29.98,South,180,5.1,5.1,48,0.00,,,0.00,WUHU216HW,2013-02-15 17:43:00,
2013-02-15 12:53:00,56.0,37.1,29.98,SW,225,0.7,3.1,49,0.00,,,0.00,WUHU216HW,2013-02-15 17:53:00,
2013-02-15 13:03:00,55.8,35.7,29.98,SW,225,2.9,2.9,47,0.00,,,0.00,WUHU216HW,2013-02-15 18:03:00,
2013-02-15 13:13:00,55.8,35.2,29.97,SSW,203,2.0,3.1,46,0.00,,,0.00,WUHU216HW,2013-02-15 18:13:00,
2013-02-15 13:24:00,55.3,34.7,29.97,SSW,203,1.8,5.6,46,0.00,,,0.00,WUHU216HW,2013-02-15 18:24:00,
2013-02-15 13:34:00,54.5,34.0,29.97,WSW,248,0.0,4.7,46,0.00,,,0.00,WUHU216HW,2013-02-15 18:34:00,
2013-02-15 13:44:00,53.5,33.0,29.97,NW,315,3.4,4.3,46,0.00,,,0.00,WUHU216HW,2013-02-15 18:44:00,
2013-02-15 13:54:00,52.9,32.6,29.96,West,270,2.0,3.4,46,0.00,,,0.00,WUHU216HW,2013-02-15 18:54:00,
2013-02-15 14:04:00,52.9,32.6,29.96,WNW,293,2.0,4.0,46,0.00,,,0.00,WUHU216HW,2013-02-15 19:04:00,
2013-02-15 14:14:00,53.5,33.7,29.96,NNW,338,0.4,1.8,47,0.00,,,0.00,WUHU216HW,2013-02-15 19:14:00,
2013-02-15 14:24:00,53.6,33.2,29.96,WNW,293,2.0,4.3,46,0.00,,,0.00,WUHU216HW,2013-02-15 19:24:00,
2013-02-15 14:34:00,53.1,32.8,29.96,NW,315,0.4,3.4,46,0.00,,,0.00,WUHU216HW,2013-02-15 19:34:00,
2013-02-15 14:44:00,52.9,32.6,29.96,SW,225,0.9,3.6,46,0.00,,,0.00,WUHU216HW,2013-02-15 19:44:00,
2013-02-15 14:54:00,51.8,32.1,29.96,WSW,248,3.4,3.4,47,0.00,,,0.00,WUHU216HW,2013-02-15 19:54:00,
2013-02-15 15:04:00,51.5,32.4,29.96,WNW,293,1.8,3.1,48,0.00,,,0.00,WUHU216HW,2013-02-15 20:04:00,
2013-02-15 15:09:00,51.7,33.1,29.96,North,0,0.0,3.1,49,2.59,,,0.16,WUHU216HW,2013-02-15 20:09:00,
2013-02-15 15:14:00,51.8,33.3,29.95,West,270,1.6,2.5,49,0.00,,,0.00,WUHU216HW,2013-02-15 20:14:00,
2013-02-15 15:19:00,52.2,32.5,29.96,WNW,293,1.6,2.5,47,2.59,,,0.16,WUHU216HW,2013-02-15 20:19:00,
2013-02-15 15:29:00,52.2,32.5,29.96,NW,315,1.1,1.8,47,2.59,,,0.16,WUHU216HW,2013-02-15 20:29:00,
2013-02-15 15:39:00,51.8,32.8,29.96,West,270,0.4,2.7,48,2.59,,,0.16,WUHU216HW,2013-02-15 20:39:00,
2013-02-15 15:49:00,51.8,31.6,29.96,NW,315,4.3,4.3,46,2.59,,,0.16,WUHU216HW,2013-02-15 20:49:00,
2013-02-15 15:59:00,51.7,30.9,29.96,WSW,248,2.2,4.5,45,2.59,,,0.16,WUHU216HW,2013-02-15 20:59:00,
2013-02-15 16:09:00,51.5,31.3,29.96,SW,225,0.2,3.4,46,2.59,,,0.17,WUHU216HW,2013-02-15 21:09:00,
2013-02-15 16:19:00,51.3,31.2,29.96,SW,225,2.5,2.5,46,2.59,,,0.17,WUHU216HW,2013-02-15 21:19:00,
2013-02-15 16:29:00,51.1,29.9,29.96,NW,315,2.0,4.5,44,2.59,,,0.17,WUHU216HW,2013-02-15 21:29:00,
2013-02-15 16:39:00,50.6,29.9,29.96,WSW,248,1.1,2.9,45,2.59,,,0.17,WUHU216HW,2013-02-15 21:39:00,
2013-02-15 16:50:00,50.6,29.9,29.96,SW,225,1.1,2.9,45,2.59,,,0.17,WUHU216HW,2013-02-15 21:50:00,
2013-02-15 17:00:00,50.0,30.0,29.96,SW,225,1.3,3.6,46,2.59,,,0.17,WUHU216HW,2013-02-15 22:00:00,
2013-02-15 17:10:00,49.7,30.3,29.96,NW,315,3.1,3.1,47,2.59,,,0.18,WUHU216HW,2013-02-15 22:10:00,
2013-02-15 17:20:00,49.3,30.4,29.96,WSW,248,0.4,2.9,48,2.59,,,0.18,WUHU216HW,2013-02-15 22:20:00,
2013-02-15 17:30:00,48.6,29.7,29.96,WNW,293,1.1,1.1,48,2.59,,,0.18,WUHU216HW,2013-02-15 22:30:00,
2013-02-15 17:40:00,48.1,29.7,29.96,NW,315,0.9,1.1,49,2.59,,,0.18,WUHU216HW,2013-02-15 22:40:00,
2013-02-15 17:50:00,47.7,30.0,29.96,NW,315,0.4,1.8,50,2.59,,,0.18,WUHU216HW,2013-02-15 22:50:00,
2013-02-15 18:00:00,46.8,29.6,29.96,NW,315,0.2,0.9,51,2.59,,,0.18,WUHU216HW,2013-02-15 23:00:00,
2013-02-15 18:10:00,46.4,29.7,29.96,West,270,0.0,0.4,52,2.59,,,0.19,WUHU216HW,2013-02-15 23:10:00,
2013-02-15 18:20:00,45.7,29.5,29.96,West,270,0.0,0.4,53,2.59,,,0.19,WUHU216HW,2013-02-15 23:20:00,
2013-02-15 18:30:00,44.5,28.4,29.96,South,180,0.0,0.2,53,2.59,,,0.19,WUHU216HW,2013-02-15 23:30:00,
2013-02-15 18:41:00,43.2,28.1,29.95,South,180,0.7,0.9,55,2.59,,,0.19,WUHU216HW,2013-02-15 23:41:00,
2013-02-15 18:51:00,42.1,27.5,29.96,South,180,0.0,0.7,56,2.59,,,0.19,WUHU216HW,2013-02-15 23:51:00,
2013-02-15 19:01:00,41.4,27.7,29.96,SSE,158,0.2,0.7,58,0.00,,,0.19,WUHU216HW,2013-02-16 00:01:00,
2013-02-15 19:11:00,41.0,27.8,29.96,SSE,158,0.4,1.1,59,2.59,,,0.20,WUHU216HW,2013-02-16 00:11:00,
2013-02-15 19:21:00,41.2,28.5,29.96,South,180,1.1,1.3,60,2.59,,,0.20,WUHU216HW,2013-02-16 00:21:00,
2013-02-15 19:31:00,41.2,28.8,29.96,West,270,0.0,0.7,61,2.59,,,0.20,WUHU216HW,2013-02-16 00:31:00,
2013-02-15 19:41:00,41.4,29.0,29.97,WNW,293,0.4,0.4,61,2.59,,,0.20,WUHU216HW,2013-02-16 00:41:00,
2013-02-15 19:51:00,42.8,29.0,29.96,West,270,0.4,1.8,58,2.59,,,0.20,WUHU216HW,2013-02-16 00:51:00,
2013-02-15 20:01:00,43.4,29.1,29.96,NW,315,0.7,1.1,57,0.00,,,0.20,WUHU216HW,2013-02-16 01:01:00,
2013-02-15 20:11:00,43.7,29.0,29.96,NNW,338,0.7,1.1,56,2.59,,,0.21,WUHU216HW,2013-02-16 01:11:00,
2013-02-15 20:21:00,43.9,28.7,29.96,WNW,293,0.7,1.8,55,2.59,,,0.21,WUHU216HW,2013-02-16 01:21:00,
2013-02-15 20:31:00,43.7,28.2,29.96,North,0,0.9,2.0,54,2.59,,,0.21,WUHU216HW,2013-02-16 01:31:00,
2013-02-15 20:42:00,43.7,27.7,29.96,North,0,1.8,3.4,53,2.59,,,0.21,WUHU216HW,2013-02-16 01:42:00,
2013-02-15 20:52:00,43.9,27.9,29.97,North,0,1.3,2.7,53,2.59,,,0.21,WUHU216HW,2013-02-16 01:52:00,
2013-02-15 21:02:00,44.1,28.0,29.97,NW,315,2.5,2.5,53,2.59,,,0.21,WUHU216HW,2013-02-16 02:02:00,
2013-02-15 21:12:00,43.9,27.9,29.97,NW,315,0.4,2.5,53,2.59,,,0.22,WUHU216HW,2013-02-16 02:12:00,
2013-02-15 21:22:00,43.7,27.7,29.97,West,270,0.4,2.5,53,2.59,,,0.22,WUHU216HW,2013-02-16 02:22:00,
2013-02-15 21:32:00,43.7,27.7,29.98,WNW,293,5.6,5.6,53,2.59,,,0.22,WUHU216HW,2013-02-16 02:32:00,
2013-02-15 21:42:00,43.2,28.9,29.99,North,0,1.8,4.7,57,2.59,,,0.22,WUHU216HW,2013-02-16 02:42:00,
2013-02-15 21:52:00,42.3,30.6,30.00,North,0,0.7,4.5,63,2.59,,,0.22,WUHU216HW,2013-02-16 02:52:00,
2013-02-15 22:02:00,41.8,30.4,29.99,NNW,338,0.0,2.2,64,2.59,,,0.22,WUHU216HW,2013-02-16 03:02:00,
2013-02-15 22:12:00,41.0,31.7,30.01,WSW,248,1.1,2.2,69,2.59,,,0.23,WUHU216HW,2013-02-16 03:12:00,
2013-02-15 22:23:00,40.7,31.7,30.01,WNW,293,0.4,1.8,70,2.59,,,0.23,WUHU216HW,2013-02-16 03:23:00,
2013-02-15 22:33:00,40.1,32.5,30.01,North,0,1.6,2.0,74,2.59,,,0.23,WUHU216HW,2013-02-16 03:33:00,
2013-02-15 22:43:00,39.6,32.7,30.02,WNW,293,1.1,2.5,76,2.59,,,0.23,WUHU216HW,2013-02-16 03:43:00,
2013-02-15 22:53:00,38.5,32.9,30.02,NNW,338,0.4,3.1,80,2.59,,,0.23,WUHU216HW,2013-02-16 03:53:00,
2013-02-15 23:03:00,37.8,32.8,30.01,NNW,338,0.4,1.8,82,2.59,,,0.24,WUHU216HW,2013-02-16 04:03:00,
2013-02-15 23:13:00,37.3,32.0,30.01,WNW,293,0.0,0.7,81,2.60,,,0.25,WUHU216HW,2013-02-16 04:13:00,
2013-02-15 23:23:00,36.9,30.7,30.01,West,270,0.0,0.9,78,2.60,,,0.25,WUHU216HW,2013-02-16 04:23:00,
2013-02-15 23:33:00,36.4,31.3,30.01,WNW,293,0.2,1.1,82,2.60,,,0.25,WUHU216HW,2013-02-16 04:33:00,
2013-02-15 23:43:00,36.0,31.6,30.01,West,270,0.0,1.1,84,2.61,,,0.26,WUHU216HW,2013-02-16 04:43:00,
2013-02-15 23:53:00,35.6,31.2,30.01,West,270,0.2,0.4,84,2.61,,,0.26,WUHU216HW,2013-02-16 04:53:00,